createdAt,value
2022-09-01T00:28:33.839Z,41
2022-09-01T00:58:40.109Z,44
2022-09-01T01:28:46.211Z,46
2022-09-01T01:58:52.820Z,49
2022-09-01T02:28:59.559Z,59
2022-09-01T02:59:06.089Z,55
2022-09-01T03:29:12.864Z,56
2022-09-01T03:59:22.345Z,59
2022-09-01T04:29:28.489Z,59
2022-09-01T04:59:35.872Z,66
2022-09-01T05:29:47.144Z,69
2022-09-01T05:59:58.053Z,63
2022-09-01T06:30:08.476Z,59
2022-09-01T07:00:20.849Z,56
2022-09-01T07:30:33.834Z,53
2022-09-01T08:00:45.560Z,49
2022-09-01T08:31:01.750Z,47
2022-09-01T09:01:17.819Z,47
2022-09-01T09:31:33.194Z,42
2022-09-01T10:01:53.826Z,37
2022-09-01T10:32:03.104Z,37
2022-09-01T11:02:16.774Z,38
2022-09-01T11:32:17.271Z,35
2022-09-01T12:02:31.687Z,33
2022-09-01T12:32:44.632Z,32
2022-09-01T13:02:49.954Z,29
2022-09-01T13:32:57.826Z,30
2022-09-01T14:03:02.082Z,27
2022-09-01T14:33:08.410Z,29
2022-09-01T15:03:19.258Z,29
2022-09-01T15:33:30.396Z,29
2022-09-01T16:03:35.991Z,30
2022-09-01T16:33:43.108Z,27
2022-09-01T17:03:47.687Z,28
2022-09-01T17:33:52.988Z,29
2022-09-01T18:03:55.132Z,27
2022-09-01T18:33:57.407Z,30
2022-09-01T19:04:00.909Z,30
2022-09-01T19:34:05.416Z,31
2022-09-01T20:04:09.628Z,31
2022-09-01T20:34:14.383Z,33
2022-09-01T21:04:20.664Z,31
2022-09-01T21:34:25.628Z,32
2022-09-01T22:04:31.115Z,34
2022-09-01T22:34:36.666Z,32
2022-09-01T23:04:42.532Z,32
2022-09-01T23:34:48.161Z,32
